Meath Environmental Platform

Observations for Trim Market St

Time AQI Temp °C Hum % Pres Pa CO μg/m³ H₂S μg/m³ NO μg/m³ NO₂ μg/m³ O₃ μg/m³ SO₂ μg/m³ PM1 μg/m³ PM2.5 μg/m³ PM10 μg/m³
Sunday 16 August 2026
13:18 2 23.5 47 60,655 0 0 1.18 7.64 64.78 0 0.71 3.1 3.41
13:17 2 23.5 47 60,432 0.03 0 1.18 9.93 70.21 0 0 2.06 2.27
13:16 2 23.5 47 60,426 0 0 1.18 9.34 66.44 0 0.71 3.1 3.41
13:15 2 23.5 47 60,333 0 0 1.18 9.64 73.39 0 0 2.58 2.84
13:13 2 23.4 47 60,232 0 0 1.22 8.67 69.32 0 0 2.57 2.83
13:12 2 23.4 47 59,981 0 0 1.2 9.18 67.01 0 0 2.56 2.82
13:06 2 23.2 48 59,028 0 0 1.2 9.72 81.95 0 0 2.54 2.8
13:05 2 23.2 48 58,858 0 0 1.19 8.81 78.88 0 0 2.02 2.22
13:04 2 23.1 48 58,613 0 0 1.2 8.92 79.36 0 0.71 2.53 2.79
13:01 2 23 48 57,856 0 0 1.21 9.05 73.42 0 0.71 3.56 3.75
12:52 2 22.7 49 56,593 0 0 1.23 7.66 68.5 0 0.71 3.54 3.76
12:51 2 22.7 49 56,272 0 0 1.23 8.25 72.97 0 0.71 3.02 3.32
12:50 2 22.7 49 56,006 0 0 1.24 8.93 82.46 0 0.71 3.54 4.52
12:49 2 22.7 49 55,913 0.03 0 1.24 9.72 83.81 0 0 3.54 3.76
12:48 2 22.7 49 55,995 0 0 1.24 9.81 84.43 0 0.71 3.02 3.32
12:47 2 22.7 49 56,101 0 0 1.23 8.6 79.29 0 0 2.5 2.76
12:46 2 22.7 49 56,083 0 0 1.23 8.51 79.76 0 0 1.99 2.25
12:45 2 22.7 49 56,110 0 0 1.23 8.35 78.31 0 0.71 3.02 3.32
12:44 2 22.7 49 56,162 0 0 1.23 7.92 73.22 0 0 3.02 3.32
12:43 2 22.7 49 56,179 0 0 1.23 8.35 79.13 0 1.43 3.54 3.76